Time;durP1;ratioP1;P1;durP2;ratioP2;P2;SDS_P1;SDS_P2;PMS_P1;PMS_P2;Temp;Humidity;BMP_temperature;BMP_pressure;BME280_temperature;BME280_humidity;BME280_pressure;Samples;Min_cycle;Max_cycle;Signal;HPM_P1;HPM_P2
2022/02/10 00:07:33;;;;;;;65.15;46.13;;;;;;;;;;5119512;27;20919;-87
2022/02/10 00:18:29;;;;;;;67.25;45.67;;;;;;;;;;5089119;27;20397;-87
2022/02/10 00:20:59;;;;;;;66.30;45.63;;;;;;;;;;5097962;27;20391;-88
2022/02/10 00:23:40;;;;;;;67.03;45.00;;;;;;;;;;5115796;27;20779;-89
2022/02/10 00:34:26;;;;;;;64.63;44.20;;;;;;;;;;5112395;27;20530;-90
2022/02/10 00:36:59;;;;;;;63.03;46.00;;;;;;;;;;5120400;27;20402;-87
2022/02/10 00:39:39;;;;;;;64.00;44.78;;;;;;;;;;5117337;27;20401;-88
2022/02/10 00:42:07;;;;;;;62.67;44.30;;;;;;;;;;5117501;27;20454;-88
2022/02/10 00:44:35;;;;;;;65.15;44.00;;;;;;;;;;5114243;27;20400;-88
2022/02/10 00:47:02;;;;;;;65.05;44.10;;;;;;;;;;5115502;27;20409;-89
2022/02/10 00:49:29;;;;;;;63.70;44.23;;;;;;;;;;5120890;27;20419;-87
2022/02/10 00:51:56;;;;;;;64.40;44.65;;;;;;;;;;5119534;27;20422;-89
2022/02/10 00:54:25;;;;;;;65.20;45.08;;;;;;;;;;5116621;27;20759;-90
2022/02/10 00:56:56;;;;;;;65.28;43.15;;;;;;;;;;5114874;27;20938;-90
2022/02/10 00:59:33;;;;;;;66.28;44.88;;;;;;;;;;5111559;27;20401;-88
2022/02/10 01:06:56;;;;;;;62.40;43.22;;;;;;;;;;5115546;27;20406;-87
2022/02/10 01:10:56;;;;;;;63.13;43.97;;;;;;;;;;5117985;27;20420;-86
2022/02/10 01:13:42;;;;;;;66.85;43.70;;;;;;;;;;5115211;27;20824;-87
2022/02/10 01:29:34;;;;;;;62.55;42.35;;;;;;;;;;5114209;27;20388;-88
2022/02/10 01:30:15;;;;;;;60.20;42.13;;;;;;;;;;5113903;27;20453;-88
2022/02/10 01:32:45;;;;;;;62.80;43.13;;;;;;;;;;5097296;27;20396;-89
2022/02/10 01:35:18;;;;;;;62.40;42.50;;;;;;;;;;5097619;28;20405;-87
2022/02/10 01:37:45;;;;;;;64.38;42.03;;;;;;;;;;5116026;27;20460;-87
2022/02/10 01:40:20;;;;;;;60.40;41.78;;;;;;;;;;5119438;27;20896;-87
2022/02/10 02:04:55;;;;;;;58.13;39.17;;;;;;;;;;5112984;27;20923;-87
2022/02/10 02:07:29;;;;;;;55.85;38.22;;;;;;;;;;5114048;28;20398;-88
2022/02/10 02:09:56;;;;;;;55.13;38.58;;;;;;;;;;5115206;28;20407;-90
2022/02/10 02:12:22;;;;;;;54.65;38.20;;;;;;;;;;5117015;28;20429;-88
2022/02/10 02:14:50;;;;;;;57.55;39.40;;;;;;;;;;5114544;28;20808;-88
2022/02/10 02:17:17;;;;;;;55.95;37.90;;;;;;;;;;5112382;27;21035;-88
2022/02/10 02:19:43;;;;;;;58.13;38.30;;;;;;;;;;5120783;27;20393;-86
2022/02/10 02:22:13;;;;;;;51.58;34.97;;;;;;;;;;5116628;28;20507;-88
2022/02/10 02:24:40;;;;;;;47.70;34.25;;;;;;;;;;5114044;28;20900;-88
2022/02/10 02:27:09;;;;;;;47.65;32.97;;;;;;;;;;5111176;28;20409;-87
2022/02/10 02:29:41;;;;;;;43.03;30.80;;;;;;;;;;5116391;28;20409;-87
2022/02/10 02:32:13;;;;;;;44.22;31.25;;;;;;;;;;5113035;28;20409;-88
2022/02/10 02:35:06;;;;;;;44.67;30.73;;;;;;;;;;5112187;27;20411;-90
2022/02/10 02:37:56;;;;;;;41.72;29.10;;;;;;;;;;5109451;28;20421;-87
2022/02/10 03:05:10;;;;;;;43.50;30.83;;;;;;;;;;5119094;28;20454;-87
2022/02/10 03:07:45;;;;;;;44.00;31.75;;;;;;;;;;5100511;28;20401;-89
2022/02/10 03:12:57;;;;;;;45.83;31.98;;;;;;;;;;5075598;28;20410;-89
2022/02/10 03:15:30;;;;;;;47.25;33.33;;;;;;;;;;5096821;28;20426;-87
2022/02/10 03:18:16;;;;;;;49.42;34.20;;;;;;;;;;5118322;27;20401;-87
2022/02/10 03:20:59;;;;;;;49.15;34.25;;;;;;;;;;5117670;27;20432;-89
2022/02/10 04:02:38;;;;;;;59.17;40.78;;;;;;;;;;5127405;27;20403;-86
2022/02/10 04:08:02;;;;;;;56.90;39.50;;;;;;;;;;5135986;27;20522;-88
2022/02/10 04:10:48;;;;;;;56.53;38.77;;;;;;;;;;5142775;27;20389;-87
2022/02/10 04:13:34;;;;;;;55.33;37.53;;;;;;;;;;5140613;27;20474;-88
2022/02/10 04:16:11;;;;;;;53.47;36.65;;;;;;;;;;5136390;27;20454;-87
2022/02/10 04:19:09;;;;;;;52.55;36.17;;;;;;;;;;5136695;27;20409;-87
2022/02/10 04:21:43;;;;;;;50.50;36.22;;;;;;;;;;5129001;27;20493;-88
2022/02/10 04:24:24;;;;;;;51.03;34.90;;;;;;;;;;5117502;28;20402;-88
2022/02/10 04:26:58;;;;;;;51.45;36.03;;;;;;;;;;5129967;27;20408;-89
2022/02/10 04:38:16;;;;;;;53.30;36.85;;;;;;;;;;5080111;27;20401;-90
2022/02/10 04:44:14;;;;;;;52.88;37.40;;;;;;;;;;5104033;28;20432;-86
2022/02/10 05:00:44;;;;;;;54.25;36.13;;;;;;;;;;5119776;27;20384;-84
2022/02/10 05:06:39;;;;;;;48.88;35.17;;;;;;;;;;5119575;27;20424;-89
2022/02/10 05:22:50;;;;;;;45.03;31.73;;;;;;;;;;5117292;27;20391;-88
2022/02/10 05:33:48;;;;;;;43.47;32.05;;;;;;;;;;5120629;27;20397;-86
2022/02/10 05:36:19;;;;;;;45.20;32.35;;;;;;;;;;5116373;27;20432;-88
2022/02/10 05:38:52;;;;;;;43.47;31.95;;;;;;;;;;5117987;27;20888;-87
2022/02/10 05:44:36;;;;;;;51.20;35.08;;;;;;;;;;5114004;27;20521;-86
2022/02/10 05:58:25;;;;;;;48.47;33.85;;;;;;;;;;5127627;27;20395;-86
2022/02/10 06:53:32;;;;;;;52.60;36.53;;;;;;;;;;5118285;27;20645;-94
2022/02/10 07:53:59;;;;;;;66.82;43.35;;;;;;;;;;5109662;27;20394;-91
2022/02/10 07:59:39;;;;;;;62.25;41.65;;;;;;;;;;5119399;27;20389;-91
2022/02/10 08:27:59;;;;;;;50.50;33.83;;;;;;;;;;5119253;27;20915;-72
2022/02/10 08:54:54;;;;;;;41.78;29.05;;;;;;;;;;5115356;27;20869;-93
2022/02/10 08:57:27;;;;;;;40.03;28.45;;;;;;;;;;5110318;27;20728;-94
2022/02/10 09:09:00;;;;;;;48.33;32.75;;;;;;;;;;5086806;28;20989;-93
2022/02/10 09:17:25;;;;;;;41.83;28.52;;;;;;;;;;5038758;28;20387;-93
2022/02/10 09:56:10;;;;;;;37.40;27.33;;;;;;;;;;5045345;28;20390;-92
2022/02/10 09:58:57;;;;;;;39.45;28.58;;;;;;;;;;5035173;28;20786;-93
2022/02/10 10:01:30;;;;;;;39.80;28.02;;;;;;;;;;5084300;28;20394;-92
2022/02/10 10:04:04;;;;;;;42.53;27.20;;;;;;;;;;5116313;28;20409;-92
2022/02/10 10:07:00;;;;;;;38.72;27.42;;;;;;;;;;5121645;28;20423;-93
2022/02/10 10:13:22;;;;;;;34.47;23.40;;;;;;;;;;5108013;27;20803;-91
2022/02/10 10:16:00;;;;;;;34.17;22.38;;;;;;;;;;5106791;28;20399;-92
2022/02/10 10:18:53;;;;;;;31.90;22.63;;;;;;;;;;5109234;28;20399;-95
2022/02/10 10:21:27;;;;;;;30.23;21.07;;;;;;;;;;5111614;28;20493;-93
2022/02/10 10:52:08;;;;;;;25.40;17.60;;;;;;;;;;5134036;27;20474;-93
2022/02/10 10:54:41;;;;;;;27.45;17.25;;;;;;;;;;5141700;27;20397;-92
2022/02/10 10:57:15;;;;;;;24.58;17.23;;;;;;;;;;5134046;27;20417;-94
2022/02/10 11:00:11;;;;;;;25.27;17.17;;;;;;;;;;5132733;27;20490;-93
2022/02/10 11:40:13;;;;;;;32.07;19.83;;;;;;;;;;5011783;28;20512;-92
2022/02/10 13:49:19;;;;;;;37.97;28.85;;;;;;;;;;5056283;28;20818;-91
2022/02/10 14:13:50;;;;;;;36.53;27.85;;;;;;;;;;5060326;28;20418;-89
2022/02/10 14:19:08;;;;;;;40.08;31.42;;;;;;;;;;5055458;28;20402;-89
2022/02/10 14:21:45;;;;;;;34.08;27.80;;;;;;;;;;5059230;28;20406;-90
2022/02/10 14:27:00;;;;;;;36.67;28.10;;;;;;;;;;5052707;28;20501;-89
2022/02/10 14:29:27;;;;;;;35.90;28.95;;;;;;;;;;5054189;28;20415;-89
2022/02/10 14:31:55;;;;;;;36.42;27.35;;;;;;;;;;5057630;28;20449;-90
2022/02/10 14:34:26;;;;;;;38.97;28.58;;;;;;;;;;5075851;28;20799;-90
2022/02/10 14:37:11;;;;;;;37.33;28.67;;;;;;;;;;5072197;28;20522;-88
2022/02/10 15:13:55;;;;;;;72.68;47.88;;;;;;;;;;5063355;28;20482;-89
2022/02/10 15:21:52;;;;;;;41.40;31.02;;;;;;;;;;5060367;28;20455;-90
2022/02/10 15:36:07;;;;;;;44.43;30.07;;;;;;;;;;4982853;28;20451;-90
2022/02/10 16:12:04;;;;;;;48.20;32.17;;;;;;;;;;5059874;28;20457;-91
2022/02/10 16:14:57;;;;;;;47.83;33.58;;;;;;;;;;5060908;28;20410;-94
2022/02/10 16:17:25;;;;;;;52.10;34.03;;;;;;;;;;5060328;28;20751;-94
2022/02/10 16:19:54;;;;;;;52.85;33.92;;;;;;;;;;5059008;28;20418;-91
2022/02/10 16:22:25;;;;;;;50.58;33.38;;;;;;;;;;5058019;28;20453;-91
2022/02/10 16:24:57;;;;;;;49.72;34.17;;;;;;;;;;5056682;28;20448;-92
2022/02/10 16:27:26;;;;;;;48.28;33.42;;;;;;;;;;5058241;28;20474;-93
2022/02/10 16:30:00;;;;;;;53.80;34.40;;;;;;;;;;5061434;28;20437;-92
2022/02/10 16:32:28;;;;;;;51.58;34.40;;;;;;;;;;5063213;28;25117;-93
2022/02/10 16:34:57;;;;;;;52.10;35.88;;;;;;;;;;5064246;28;20439;-94
2022/02/10 16:37:24;;;;;;;54.00;36.03;;;;;;;;;;5062255;28;20806;-92
2022/02/10 16:39:51;;;;;;;52.92;34.97;;;;;;;;;;5061900;28;20411;-92
2022/02/10 16:42:19;;;;;;;57.45;38.90;;;;;;;;;;5065889;28;21166;-93
2022/02/10 16:44:49;;;;;;;54.63;36.42;;;;;;;;;;5063540;28;20405;-94
2022/02/10 16:47:25;;;;;;;56.35;37.08;;;;;;;;;;5061918;28;20425;-93
2022/02/10 16:49:53;;;;;;;50.97;34.85;;;;;;;;;;5058607;28;20913;-94
2022/02/10 16:52:26;;;;;;;67.63;40.08;;;;;;;;;;5066271;28;20412;-92
2022/02/10 16:55:05;;;;;;;60.47;37.53;;;;;;;;;;5064398;28;20536;-95
2022/02/10 16:57:42;;;;;;;65.32;40.50;;;;;;;;;;5060292;28;25119;-92
2022/02/10 17:00:30;;;;;;;63.17;41.40;;;;;;;;;;5064665;28;20463;-93
2022/02/10 17:03:17;;;;;;;62.20;40.58;;;;;;;;;;5055518;28;20391;-91
2022/02/10 17:05:56;;;;;;;61.80;39.40;;;;;;;;;;5060893;28;20412;-93
2022/02/10 17:19:59;;;;;;;55.53;38.10;;;;;;;;;;5060085;28;20449;-93
2022/02/10 17:25:19;;;;;;;56.72;37.58;;;;;;;;;;5060720;28;20514;-91
2022/02/10 17:27:53;;;;;;;58.22;38.08;;;;;;;;;;5056873;28;20532;-93
2022/02/10 17:33:10;;;;;;;55.25;37.25;;;;;;;;;;5051120;28;20455;-93
2022/02/10 17:44:18;;;;;;;60.67;39.67;;;;;;;;;;5066924;28;20765;-92
2022/02/10 17:46:58;;;;;;;61.35;39.58;;;;;;;;;;5067460;28;20959;-93
2022/02/10 17:52:15;;;;;;;57.97;37.58;;;;;;;;;;5063172;28;20393;-93
2022/02/10 17:54:44;;;;;;;61.67;37.78;;;;;;;;;;5057446;28;20449;-92
2022/02/10 17:57:14;;;;;;;57.20;38.40;;;;;;;;;;5061877;28;20406;-91
2022/02/10 17:59:41;;;;;;;59.85;38.63;;;;;;;;;;5061708;28;20420;-92
2022/02/10 18:02:08;;;;;;;59.58;37.85;;;;;;;;;;5068625;28;20885;-91
2022/02/10 18:04:35;;;;;;;59.45;38.47;;;;;;;;;;5072462;28;20392;-92
2022/02/10 18:07:03;;;;;;;61.13;38.10;;;;;;;;;;5088081;28;20907;-90
2022/02/10 18:15:20;;;;;;;65.10;39.13;;;;;;;;;;5091787;28;20405;-93
2022/02/10 18:17:53;;;;;;;63.28;40.08;;;;;;;;;;5087256;28;20406;-92
2022/02/10 18:20:25;;;;;;;60.83;40.25;;;;;;;;;;5089252;28;20420;-92
2022/02/10 18:23:06;;;;;;;66.25;41.78;;;;;;;;;;5093175;28;20421;-93
2022/02/10 18:25:48;;;;;;;64.63;40.33;;;;;;;;;;5085128;28;20396;-92
2022/02/10 18:28:30;;;;;;;63.28;40.13;;;;;;;;;;5074232;28;20425;-91
2022/02/10 19:01:47;;;;;;;85.57;51.42;;;;;;;;;;5072368;28;20401;-90
2022/02/10 19:07:20;;;;;;;89.35;55.65;;;;;;;;;;5062530;28;20444;-89
2022/02/10 19:09:50;;;;;;;89.32;56.22;;;;;;;;;;5066157;28;20898;-91
2022/02/10 19:12:21;;;;;;;106.45;62.45;;;;;;;;;;5066076;28;20429;-91
2022/02/10 19:14:53;;;;;;;90.30;54.17;;;;;;;;;;5059705;28;20422;-91
2022/02/10 19:17:24;;;;;;;87.22;53.83;;;;;;;;;;5067923;28;20414;-90
2022/02/10 19:19:51;;;;;;;86.15;53.88;;;;;;;;;;5062798;28;20414;-90
2022/02/10 19:22:19;;;;;;;93.87;56.17;;;;;;;;;;5064261;28;20413;-91
2022/02/10 19:24:46;;;;;;;92.68;56.42;;;;;;;;;;5062210;28;20408;-90
2022/02/10 19:27:16;;;;;;;89.73;55.23;;;;;;;;;;5062892;28;20410;-90
2022/02/10 19:29:43;;;;;;;90.45;52.67;;;;;;;;;;5061531;28;20438;-90
2022/02/10 19:32:14;;;;;;;83.15;53.53;;;;;;;;;;5066654;28;20485;-91
2022/02/10 19:34:44;;;;;;;86.25;54.72;;;;;;;;;;5063394;28;20824;-90
2022/02/10 19:37:11;;;;;;;82.38;51.20;;;;;;;;;;5062790;28;20459;-91
2022/02/10 19:39:41;;;;;;;84.03;52.53;;;;;;;;;;5060626;28;20520;-91
2022/02/10 19:42:09;;;;;;;85.83;52.10;;;;;;;;;;5064721;28;20415;-89
2022/02/10 19:44:37;;;;;;;84.10;51.08;;;;;;;;;;5061318;28;20446;-90
2022/02/10 19:47:05;;;;;;;87.28;53.20;;;;;;;;;;5061764;28;20410;-90
2022/02/10 19:49:32;;;;;;;86.57;53.30;;;;;;;;;;5070212;28;20944;-90
2022/02/10 19:52:01;;;;;;;89.30;53.95;;;;;;;;;;5061013;28;20434;-93
2022/02/10 19:54:34;;;;;;;88.35;54.38;;;;;;;;;;5063063;28;20418;-90
2022/02/10 19:57:01;;;;;;;87.63;54.47;;;;;;;;;;5059532;28;20420;-92
2022/02/10 19:59:30;;;;;;;87.88;54.20;;;;;;;;;;5062332;28;21369;-90
2022/02/10 20:01:57;;;;;;;82.53;53.33;;;;;;;;;;5061501;28;20414;-91
2022/02/10 20:04:26;;;;;;;86.38;54.08;;;;;;;;;;5067432;28;20401;-92
2022/02/10 20:06:55;;;;;;;85.55;53.10;;;;;;;;;;5066614;28;20403;-92
2022/02/10 20:09:24;;;;;;;84.32;53.10;;;;;;;;;;5066528;28;20424;-92
2022/02/10 20:11:51;;;;;;;85.80;55.70;;;;;;;;;;5065984;28;20438;-93
2022/02/10 20:14:21;;;;;;;87.97;54.75;;;;;;;;;;5071830;28;20952;-92
2022/02/10 20:16:48;;;;;;;89.47;55.05;;;;;;;;;;5065765;28;20513;-92
2022/02/10 20:19:15;;;;;;;86.65;53.78;;;;;;;;;;5065792;28;20405;-92
2022/02/10 20:21:43;;;;;;;84.68;55.20;;;;;;;;;;5064893;28;20411;-91
2022/02/10 20:24:10;;;;;;;90.93;57.22;;;;;;;;;;5072049;28;20410;-93
2022/02/10 20:26:39;;;;;;;85.30;53.03;;;;;;;;;;5063515;28;20423;-92
2022/02/10 20:29:08;;;;;;;85.80;53.30;;;;;;;;;;5061915;28;20439;-91
2022/02/10 20:31:39;;;;;;;81.60;53.22;;;;;;;;;;5061635;28;20493;-91
2022/02/10 20:34:07;;;;;;;85.80;55.30;;;;;;;;;;5062990;28;20460;-90
2022/02/10 20:36:35;;;;;;;84.13;53.47;;;;;;;;;;5063683;28;20423;-90
2022/02/10 20:39:04;;;;;;;83.78;55.20;;;;;;;;;;5065917;28;20402;-91
2022/02/10 20:41:33;;;;;;;84.07;55.67;;;;;;;;;;5063178;28;20429;-92
2022/02/10 20:44:05;;;;;;;84.60;54.97;;;;;;;;;;5060057;28;20421;-91
2022/02/10 20:46:38;;;;;;;83.88;55.90;;;;;;;;;;5059045;28;20900;-91
2022/02/10 20:49:05;;;;;;;86.40;55.78;;;;;;;;;;5057470;28;20404;-91
2022/02/10 20:51:32;;;;;;;92.95;55.65;;;;;;;;;;5061601;28;20402;-90
2022/02/10 20:54:00;;;;;;;87.53;55.67;;;;;;;;;;5066565;28;20428;-92
2022/02/10 20:56:27;;;;;;;86.78;54.30;;;;;;;;;;5070576;28;20410;-92
2022/02/10 20:58:58;;;;;;;83.05;54.65;;;;;;;;;;5055193;28;20894;-92
2022/02/10 21:01:27;;;;;;;83.45;53.05;;;;;;;;;;5064708;28;20469;-89
2022/02/10 21:03:59;;;;;;;81.85;52.83;;;;;;;;;;5064902;28;20417;-90
2022/02/10 21:06:44;;;;;;;81.25;52.55;;;;;;;;;;5061500;28;20448;-90
2022/02/10 21:09:21;;;;;;;81.40;54.23;;;;;;;;;;5061061;28;20508;-90
2022/02/10 21:11:52;;;;;;;86.05;52.47;;;;;;;;;;5065049;28;20414;-91
2022/02/10 21:14:20;;;;;;;85.63;53.30;;;;;;;;;;5050651;28;20489;-91
2022/02/10 21:16:48;;;;;;;84.70;53.67;;;;;;;;;;5063731;28;20394;-92
2022/02/10 21:19:17;;;;;;;84.10;54.40;;;;;;;;;;5065104;28;20425;-91
2022/02/10 21:21:45;;;;;;;85.10;53.63;;;;;;;;;;5060644;28;20437;-93
2022/02/10 21:24:21;;;;;;;87.07;54.08;;;;;;;;;;5084772;28;20406;-91
2022/02/10 21:27:03;;;;;;;85.15;54.10;;;;;;;;;;5081997;28;20442;-93
2022/02/10 21:29:31;;;;;;;83.97;54.20;;;;;;;;;;5082380;28;20398;-92
2022/02/10 21:32:00;;;;;;;82.03;52.70;;;;;;;;;;5056353;28;20399;-90
2022/02/10 21:34:31;;;;;;;82.97;53.57;;;;;;;;;;5060048;28;20503;-91
2022/02/10 21:37:03;;;;;;;80.05;52.63;;;;;;;;;;5059221;28;20963;-90
2022/02/10 21:39:46;;;;;;;83.43;54.20;;;;;;;;;;5062720;28;20420;-92
2022/02/10 21:47:58;;;;;;;85.32;53.67;;;;;;;;;;5061846;28;20385;-90
2022/02/10 22:10:04;;;;;;;85.32;54.67;;;;;;;;;;5061396;28;20397;-92
2022/02/10 22:20:54;;;;;;;83.82;52.15;;;;;;;;;;5064840;28;20393;-92
2022/02/10 22:23:23;;;;;;;86.53;54.00;;;;;;;;;;5060909;28;20430;-92
2022/02/10 22:25:57;;;;;;;87.80;54.55;;;;;;;;;;5062030;28;20439;-91
2022/02/10 22:28:31;;;;;;;86.28;53.78;;;;;;;;;;5067251;28;20842;-91
2022/02/10 22:31:14;;;;;;;87.30;54.80;;;;;;;;;;5068711;28;20406;-93
2022/02/10 22:34:01;;;;;;;84.97;54.65;;;;;;;;;;5056745;28;20417;-93
2022/02/10 22:36:30;;;;;;;82.90;54.20;;;;;;;;;;5071266;28;20402;-92
2022/02/10 22:39:01;;;;;;;85.63;53.35;;;;;;;;;;5057331;28;20411;-93
2022/02/10 22:41:29;;;;;;;80.82;51.42;;;;;;;;;;5060910;28;20399;-93
2022/02/10 22:43:58;;;;;;;79.50;53.22;;;;;;;;;;5064037;28;20410;-93
2022/02/10 22:46:25;;;;;;;81.57;52.65;;;;;;;;;;5064376;28;20431;-92
2022/02/10 22:48:52;;;;;;;80.00;52.15;;;;;;;;;;5061913;28;20402;-93
2022/02/10 22:51:21;;;;;;;78.55;51.05;;;;;;;;;;5071906;28;20406;-92
2022/02/10 22:53:50;;;;;;;82.15;52.83;;;;;;;;;;5071032;28;20405;-93
2022/02/10 22:56:19;;;;;;;82.63;54.35;;;;;;;;;;5052027;28;20423;-93
2022/02/10 22:58:47;;;;;;;83.70;53.50;;;;;;;;;;5069456;28;20882;-92
2022/02/10 23:01:16;;;;;;;80.93;51.60;;;;;;;;;;5071120;28;20425;-89
2022/02/10 23:03:43;;;;;;;83.72;52.83;;;;;;;;;;5070996;28;20402;-93
2022/02/10 23:06:13;;;;;;;80.78;51.35;;;;;;;;;;5070664;28;20409;-92
2022/02/10 23:08:41;;;;;;;81.28;51.67;;;;;;;;;;5070592;28;20457;-93
2022/02/10 23:11:13;;;;;;;84.03;52.47;;;;;;;;;;5070958;28;20410;-93
2022/02/10 23:13:44;;;;;;;81.15;50.40;;;;;;;;;;5061798;28;20418;-93
2022/02/10 23:16:13;;;;;;;78.57;50.37;;;;;;;;;;5052255;28;20472;-92
2022/02/10 23:18:41;;;;;;;81.13;52.00;;;;;;;;;;5069371;28;20410;-93
2022/02/10 23:21:10;;;;;;;80.38;50.65;;;;;;;;;;5067345;28;20425;-92
2022/02/10 23:23:39;;;;;;;84.78;51.75;;;;;;;;;;5051692;28;20403;-93
2022/02/10 23:26:08;;;;;;;79.53;51.15;;;;;;;;;;5067082;28;20405;-93
2022/02/10 23:28:39;;;;;;;79.07;51.00;;;;;;;;;;5067600;28;20410;-93
2022/02/10 23:31:10;;;;;;;78.78;50.55;;;;;;;;;;5066287;28;20414;-93
2022/02/10 23:33:39;;;;;;;82.93;52.08;;;;;;;;;;5068678;28;20747;-92
2022/02/10 23:38:57;;;;;;;79.22;50.92;;;;;;;;;;5069256;28;20394;-93
2022/02/10 23:44:15;;;;;;;82.68;51.75;;;;;;;;;;5064119;28;20889;-93
2022/02/10 23:46:44;;;;;;;82.00;52.58;;;;;;;;;;5069899;28;20929;-93
2022/02/10 23:49:14;;;;;;;81.82;52.40;;;;;;;;;;5070283;28;20485;-92
2022/02/10 23:51:48;;;;;;;79.03;50.20;;;;;;;;;;5070184;28;20410;-93
2022/02/10 23:54:16;;;;;;;81.60;52.10;;;;;;;;;;5070317;28;20395;-92
2022/02/10 23:56:44;;;;;;;78.07;51.22;;;;;;;;;;5069783;28;20414;-93
2022/02/10 23:59:19;;;;;;;76.87;50.23;;;;;;;;;;5062954;28;20527;-93
